Time;durP1;ratioP1;P1;durP2;ratioP2;P2;SDS_P1;SDS_P2;PMS_P1;PMS_P2;Temp;Humidity;BMP_temperature;BMP_pressure;BME280_temperature;BME280_humidity;BME280_pressure;Samples;Min_cycle;Max_cycle;Signal;HPM_P1;HPM_P2
2022/05/28 00:02:51;;;;;;;6.47;3.27;;;;;;;10.87;77.95;100003.31;2841246;82;21068;-91
2022/05/28 00:06:52;;;;;;;10.03;3.90;;;;;;;10.82;78.00;99994.39;2844399;82;21082;-91
2022/05/28 00:10:57;;;;;;;6.62;3.15;;;;;;;10.80;77.75;99995.02;2794685;83;21082;-91
2022/05/28 00:14:58;;;;;;;15.63;4.35;;;;;;;10.76;77.96;99991.42;2819361;83;21026;-91
2022/05/28 00:19:00;;;;;;;9.03;2.92;;;;;;;10.73;78.02;99986.37;2807497;83;21610;-91
2022/05/28 00:23:02;;;;;;;8.58;2.83;;;;;;;10.69;78.22;99985.32;2819329;83;21018;-91
2022/05/28 00:27:04;;;;;;;8.90;2.70;;;;;;;10.69;78.15;99985.80;2817103;83;21114;-90
2022/05/28 00:31:06;;;;;;;6.58;2.87;;;;;;;10.65;78.36;99989.23;2814144;83;21042;-90
2022/05/28 00:35:12;;;;;;;5.08;2.62;;;;;;;10.64;78.83;99980.90;2838395;83;21074;-91
2022/05/28 00:39:13;;;;;;;6.35;2.87;;;;;;;10.65;78.87;99991.03;2817480;83;21071;-90
2022/05/28 00:43:16;;;;;;;8.48;3.05;;;;;;;10.66;79.07;99986.92;2815386;83;21073;-91
2022/05/28 00:47:18;;;;;;;7.37;3.17;;;;;;;10.63;79.81;99985.86;2819496;83;21598;-89
2022/05/28 00:51:36;;;;;;;7.67;3.45;;;;;;;10.62;80.22;99982.85;2822191;83;21062;-89
2022/05/28 00:55:38;;;;;;;5.87;2.70;;;;;;;10.57;79.97;99985.05;2818907;83;20991;-90
2022/05/28 00:59:39;;;;;;;6.80;3.45;;;;;;;10.48;80.09;99978.70;2817595;83;21085;-91
2022/05/28 01:03:54;;;;;;;7.50;3.58;;;;;;;10.46;80.14;99973.19;2804967;83;21083;-90
2022/05/28 01:08:19;;;;;;;10.75;2.65;;;;;;;10.47;80.10;99972.21;2770276;84;21083;-91
2022/05/28 01:13:11;;;;;;;6.03;2.25;;;;;;;10.44;80.06;99977.30;2782428;84;21027;-90
2022/05/28 01:17:27;;;;;;;7.72;2.85;;;;;;;10.44;80.31;99971.98;2825441;82;21030;-89
2022/05/28 01:21:53;;;;;;;9.48;4.08;;;;;;;10.39;80.43;99974.16;2834204;82;21034;-90
2022/05/28 01:26:03;;;;;;;7.92;2.65;;;;;;;10.33;80.67;99976.03;2775561;84;21046;-90
2022/05/28 01:30:11;;;;;;;5.47;2.60;;;;;;;10.29;80.58;99961.65;2808414;83;21079;-91
2022/05/28 01:34:15;;;;;;;12.85;2.30;;;;;;;10.25;80.52;99958.08;2818660;83;21043;-88
2022/05/28 01:38:19;;;;;;;7.15;2.22;;;;;;;10.24;80.36;99957.73;2811449;83;21050;-90
2022/05/28 01:42:21;;;;;;;6.92;2.35;;;;;;;10.21;80.24;99956.64;2827384;82;21089;-91
2022/05/28 01:46:27;;;;;;;11.12;2.98;;;;;;;10.14;80.09;99954.52;2817850;83;21074;-90
2022/05/28 01:50:30;;;;;;;7.15;3.35;;;;;;;10.03;80.13;99957.27;2805841;82;21019;-90
2022/05/28 01:54:43;;;;;;;9.98;4.08;;;;;;;9.97;80.46;99948.46;2826646;83;21074;-90
2022/05/28 01:58:44;;;;;;;7.20;2.33;;;;;;;9.96;80.44;99946.78;2786535;84;21062;-90
2022/05/28 02:02:45;;;;;;;6.50;2.35;;;;;;;9.94;80.45;99943.41;2785253;84;22266;-90
2022/05/28 02:06:47;;;;;;;4.70;2.25;;;;;;;9.92;80.47;99943.53;2843472;82;21535;-91
2022/05/28 02:10:54;;;;;;;9.03;2.60;;;;;;;9.91;80.47;99945.00;2840250;82;21518;-90
2022/05/28 02:15:03;;;;;;;5.12;2.85;;;;;;;9.90;80.67;99940.66;2833609;82;21550;-89
2022/05/28 02:19:10;;;;;;;7.22;1.82;;;;;;;9.90;80.83;99939.34;2838339;82;21010;-91
2022/05/28 02:23:31;;;;;;;7.58;1.67;;;;;;;9.90;82.08;99941.99;2781395;82;21041;-90
2022/05/28 02:27:37;;;;;;;6.47;2.35;;;;;;;10.01;82.87;99936.59;2823232;82;21049;-91
2022/05/28 02:31:43;;;;;;;5.87;2.50;;;;;;;10.12;82.94;99928.55;2837432;82;21045;-90
2022/05/28 02:35:44;;;;;;;13.30;2.70;;;;;;;10.25;82.74;99922.20;2825344;82;21017;-90
2022/05/28 02:39:46;;;;;;;10.85;3.15;;;;;;;10.35;82.28;99912.43;2810897;82;21029;-90
2022/05/28 02:43:47;;;;;;;5.30;2.17;;;;;;;10.39;82.15;99911.18;2800856;82;21187;-90
2022/05/28 02:47:49;;;;;;;5.22;2.40;;;;;;;10.41;81.77;99914.58;2797779;83;21017;-91
2022/05/28 02:51:50;;;;;;;4.17;1.22;;;;;;;10.42;81.66;99908.78;2822434;82;21125;-90
2022/05/28 02:55:51;;;;;;;3.40;1.70;;;;;;;10.43;81.76;99909.99;2814436;83;21026;-91
2022/05/28 02:59:52;;;;;;;7.72;2.40;;;;;;;10.46;81.58;99912.03;2800646;83;21060;-89
2022/05/28 03:03:54;;;;;;;5.72;2.08;;;;;;;10.47;81.55;99901.74;2804233;83;21334;-90
2022/05/28 03:07:55;;;;;;;7.95;2.47;;;;;;;10.51;81.45;99903.15;2811283;82;21073;-88
2022/05/28 03:11:56;;;;;;;6.17;1.85;;;;;;;10.47;81.08;99908.39;2839626;82;21695;-89
2022/05/28 03:15:57;;;;;;;5.08;2.27;;;;;;;10.48;81.27;99902.92;2772602;83;21495;-89
2022/05/28 03:20:01;;;;;;;5.15;2.52;;;;;;;10.49;81.22;99904.60;2738588;85;21680;-90
2022/05/28 03:24:02;;;;;;;7.10;2.98;;;;;;;10.56;81.18;99908.89;2767180;84;21052;-89
2022/05/28 03:28:04;;;;;;;3.92;2.00;;;;;;;10.62;81.38;99914.17;2768690;84;21044;-89
2022/05/28 03:32:06;;;;;;;9.13;2.72;;;;;;;10.68;81.38;99912.29;2771271;82;21144;-91
2022/05/28 03:36:07;;;;;;;8.50;3.35;;;;;;;10.70;82.25;99913.84;2827861;82;21073;-90
2022/05/28 03:40:09;;;;;;;11.97;3.52;;;;;;;10.81;82.51;99922.20;2832690;82;21483;-90
2022/05/28 03:44:11;;;;;;;7.58;1.87;;;;;;;10.88;82.26;99918.98;2832778;82;21006;-89
2022/05/28 03:48:12;;;;;;;7.60;2.20;;;;;;;10.77;80.61;99923.94;2789153;83;21038;-90
2022/05/28 03:52:17;;;;;;;5.20;2.17;;;;;;;10.92;80.62;99924.41;2845314;82;21019;-89
2022/05/28 03:56:17;;;;;;;7.70;1.90;;;;;;;10.80;79.30;99915.67;2847167;81;21073;-90
2022/05/28 04:00:19;;;;;;;2.65;1.45;;;;;;;10.80;79.07;99909.02;2830639;81;21064;-90
2022/05/28 04:04:20;;;;;;;5.58;2.10;;;;;;;10.84;80.08;99915.28;2840422;82;21585;-90
2022/05/28 04:08:22;;;;;;;6.10;2.72;;;;;;;10.91;81.10;99916.91;2844568;81;20991;-87
2022/05/28 04:12:23;;;;;;;3.83;1.85;;;;;;;11.06;81.10;99920.51;2813938;83;21625;-90
2022/05/28 04:16:26;;;;;;;10.50;1.98;;;;;;;11.09;80.40;99906.92;2838346;83;21074;-91
2022/05/28 04:20:27;;;;;;;4.25;1.57;;;;;;;11.11;79.32;99913.80;2813505;83;21015;-92
2022/05/28 04:24:29;;;;;;;11.57;2.40;;;;;;;11.08;78.79;99902.07;2821088;83;21034;-88
2022/05/28 04:28:30;;;;;;;7.87;1.77;;;;;;;11.17;79.76;99908.89;2819611;83;21098;-89
2022/05/28 04:32:31;;;;;;;3.83;2.22;;;;;;;11.23;80.71;99910.52;2790763;83;21038;-90
2022/05/28 04:36:33;;;;;;;10.58;1.72;;;;;;;11.34;80.48;99910.01;2813787;84;21093;-89
2022/05/28 04:40:34;;;;;;;10.00;1.52;;;;;;;11.47;80.13;99907.05;2821110;83;21042;-90
2022/05/28 04:44:35;;;;;;;3.77;2.15;;;;;;;11.51;79.35;99915.96;2814686;83;21038;-90
2022/05/28 04:48:36;;;;;;;4.55;2.00;;;;;;;12.39;78.94;99912.78;2813829;83;21532;-91
2022/05/28 04:52:38;;;;;;;8.43;2.02;;;;;;;13.19;75.81;99917.53;2807309;83;21069;-91
2022/05/28 04:56:39;;;;;;;2.60;1.47;;;;;;;14.00;73.72;99909.52;2784748;83;21373;-90
2022/05/28 05:00:41;;;;;;;2.75;1.85;;;;;;;14.87;71.42;99909.10;2809769;83;21117;-91
2022/05/28 05:04:43;;;;;;;5.28;1.60;;;;;;;15.60;66.81;99886.05;2811382;82;21317;-91
2022/05/28 05:08:45;;;;;;;3.72;1.20;;;;;;;16.05;65.53;99880.33;2833360;82;21054;-91
2022/05/28 05:12:46;;;;;;;1.85;1.15;;;;;;;16.49;63.67;99889.23;2799899;82;21010;-88
2022/05/28 05:16:47;;;;;;;3.30;1.25;;;;;;;16.79;62.13;99879.19;2839990;82;21106;-91
2022/05/28 05:20:48;;;;;;;4.92;1.02;;;;;;;16.80;62.66;99883.54;2762701;83;21525;-89
2022/05/28 05:24:52;;;;;;;2.25;1.22;;;;;;;16.67;61.84;99890.83;2817084;82;21529;-91
2022/05/28 05:28:54;;;;;;;3.05;1.20;;;;;;;16.56;61.84;99868.72;2834537;82;21002;-91
2022/05/28 05:32:55;;;;;;;3.67;1.52;;;;;;;16.08;63.41;99888.03;2816674;83;21597;-89
2022/05/28 05:36:56;;;;;;;5.15;0.80;;;;;;;15.36;66.85;99897.11;2793701;83;20988;-92
2022/05/28 05:40:57;;;;;;;3.20;0.82;;;;;;;15.23;69.33;99888.72;2789726;83;21083;-89
2022/05/28 05:44:58;;;;;;;4.87;0.98;;;;;;;14.90;68.53;99882.81;2793884;83;21046;-89
2022/05/28 05:48:59;;;;;;;6.55;1.75;;;;;;;15.47;68.18;99877.18;2802621;83;20983;-92
2022/05/28 05:53:00;;;;;;;2.42;1.15;;;;;;;16.10;68.16;99868.05;2740474;83;21061;-91
2022/05/28 05:57:01;;;;;;;7.78;1.02;;;;;;;16.50;64.60;99871.26;2821281;82;21012;-90
2022/05/28 06:01:04;;;;;;;6.70;1.40;;;;;;;16.88;65.17;99874.08;2791016;82;21132;-90
2022/05/28 06:05:07;;;;;;;4.22;1.37;;;;;;;17.23;63.16;99871.86;2789203;83;21550;-88
2022/05/28 06:09:09;;;;;;;5.20;2.50;;;;;;;17.50;62.27;99867.45;2794038;83;21538;-90
2022/05/28 06:13:10;;;;;;;4.35;1.62;;;;;;;17.66;60.44;99867.80;2772288;85;21023;-90
2022/05/28 06:17:11;;;;;;;3.85;1.07;;;;;;;17.70;60.37;99843.58;2817810;83;21093;-90
2022/05/28 06:21:12;;;;;;;4.10;1.52;;;;;;;17.82;60.57;99848.00;2798038;82;20980;-89
2022/05/28 06:25:14;;;;;;;6.58;1.12;;;;;;;16.79;57.92;99840.24;2804464;82;21061;-89
2022/05/28 06:29:15;;;;;;;7.78;1.60;;;;;;;16.62;58.42;99832.28;2844252;82;21101;-90
2022/05/28 06:33:17;;;;;;;4.67;1.02;;;;;;;16.56;58.16;99826.28;2840920;82;20998;-88
2022/05/28 06:37:19;;;;;;;5.78;0.95;;;;;;;16.15;59.38;99838.55;2844579;82;21588;-89
2022/05/28 06:41:20;;;;;;;2.58;0.85;;;;;;;15.54;59.62;99835.80;2814708;83;21363;-89
2022/05/28 06:45:22;;;;;;;2.75;1.35;;;;;;;14.99;61.69;99833.64;2727901;83;21093;-89
2022/05/28 06:49:24;;;;;;;2.77;1.30;;;;;;;15.21;62.81;99833.98;2849541;82;21053;-90
2022/05/28 06:53:25;;;;;;;6.22;1.60;;;;;;;15.84;61.41;99819.48;2836205;82;21060;-91
2022/05/28 06:57:27;;;;;;;2.37;1.30;;;;;;;15.95;59.08;99798.72;2840917;82;21037;-89
2022/05/28 07:01:28;;;;;;;9.08;1.47;;;;;;;15.78;59.60;99814.81;2844111;82;21675;-87
2022/05/28 07:05:30;;;;;;;5.35;1.45;;;;;;;15.24;61.54;99804.17;2797575;82;21899;-91
2022/05/28 07:09:31;;;;;;;4.17;1.45;;;;;;;15.11;61.58;99827.94;2846334;82;21038;-91
2022/05/28 07:13:35;;;;;;;8.23;2.02;;;;;;;15.13;63.23;99817.89;2835769;83;21545;-90
2022/05/28 07:17:36;;;;;;;7.83;2.02;;;;;;;15.26;62.74;99833.48;2776162;83;21352;-90
2022/05/28 07:21:37;;;;;;;4.85;1.62;;;;;;;15.52;63.53;99835.14;2751766;83;21734;-91
2022/05/28 07:25:38;;;;;;;2.20;0.98;;;;;;;15.42;62.32;99803.97;2796075;83;21039;-91
2022/05/28 07:29:40;;;;;;;3.02;1.42;;;;;;;15.27;61.00;99814.55;2765719;83;21931;-92
2022/05/28 07:33:44;;;;;;;8.10;2.12;;;;;;;15.39;60.21;99818.23;2781442;83;21779;-91
2022/05/28 07:37:45;;;;;;;2.20;1.25;;;;;;;15.45;60.42;99800.12;2783823;82;21079;-91
2022/05/28 07:41:46;;;;;;;5.33;1.15;;;;;;;15.39;59.28;99810.20;2817231;82;21045;-89
2022/05/28 07:45:48;;;;;;;2.62;0.75;;;;;;;15.59;60.21;99795.09;2840453;82;21002;-89
2022/05/28 07:49:49;;;;;;;5.00;0.85;;;;;;;15.65;60.78;99802.44;2842428;82;21044;-92
2022/05/28 07:53:51;;;;;;;4.70;1.22;;;;;;;15.84;57.49;99807.94;2766822;82;20982;-88
2022/05/28 07:57:53;;;;;;;3.15;0.70;;;;;;;15.82;57.57;99785.79;2819340;83;21019;-88
2022/05/28 08:01:54;;;;;;;3.92;1.05;;;;;;;15.83;57.72;99803.59;2786043;85;21061;-88
2022/05/28 08:05:56;;;;;;;3.40;1.05;;;;;;;15.38;58.67;99816.05;2791931;83;23644;-88
2022/05/28 08:09:58;;;;;;;6.40;1.20;;;;;;;15.82;57.82;99779.94;2722259;84;21060;-89
2022/05/28 08:13:59;;;;;;;3.67;1.60;;;;;;;15.78;56.10;99800.07;2711814;85;21090;-93
2022/05/28 08:18:00;;;;;;;1.07;0.80;;;;;;;15.81;59.39;99805.58;2778196;83;21022;-90
2022/05/28 08:26:21;;;;;;;4.97;1.70;;;;;;;15.89;57.29;99796.21;2760060;84;21648;-91
2022/05/28 08:30:23;;;;;;;4.28;1.20;;;;;;;15.60;59.29;99803.47;2755854;83;21023;-90
2022/05/28 08:34:24;;;;;;;3.05;0.90;;;;;;;15.74;59.69;99779.13;2777070;84;21083;-89
2022/05/28 08:38:26;;;;;;;3.00;0.80;;;;;;;15.90;58.64;99791.67;2782763;83;21536;-89
2022/05/28 08:42:29;;;;;;;5.03;1.40;;;;;;;16.11;57.56;99785.24;2782093;84;20983;-94
2022/05/28 08:46:36;;;;;;;9.55;0.85;;;;;;;16.26;57.27;99801.92;2752959;83;21063;-90
2022/05/28 08:50:43;;;;;;;2.60;0.72;;;;;;;16.26;56.65;99758.98;2776417;84;21100;-89
2022/05/28 08:54:57;;;;;;;4.00;0.78;;;;;;;16.13;58.17;99817.25;2770699;84;21499;-91
2022/05/28 08:59:13;;;;;;;4.17;1.22;;;;;;;16.34;57.92;99805.08;2776734;83;21605;-90
2022/05/28 09:03:25;;;;;;;3.77;0.90;;;;;;;16.37;58.04;99808.75;2779175;84;21073;-90
2022/05/28 09:07:27;;;;;;;2.62;0.55;;;;;;;16.36;59.06;99827.20;2770022;84;21023;-87
2022/05/28 09:11:40;;;;;;;4.65;1.42;;;;;;;16.55;58.18;99825.43;2822420;84;21058;-86
2022/05/28 09:15:43;;;;;;;2.08;0.80;;;;;;;15.85;58.93;99846.63;2794802;83;21086;-90
2022/05/28 09:19:45;;;;;;;3.45;0.47;;;;;;;15.02;60.71;99855.21;2843721;82;21077;-89
2022/05/28 09:23:54;;;;;;;0.42;0.33;;;;;;;14.79;62.25;99855.84;2797335;84;21058;-89
2022/05/28 09:28:24;;;;;;;1.95;0.45;;;;;;;15.04;62.10;99850.55;2796267;82;21605;-90
2022/05/28 09:33:06;;;;;;;3.72;0.75;;;;;;;15.04;61.80;99877.34;2822958;82;21014;-93
2022/05/28 09:37:12;;;;;;;1.55;0.55;;;;;;;15.08;61.93;99889.39;2839062;82;21051;-92
2022/05/28 09:41:19;;;;;;;0.37;0.33;;;;;;;15.34;62.41;99888.41;2843149;82;21081;-93
2022/05/28 09:45:45;;;;;;;2.22;0.45;;;;;;;15.70;62.50;99884.53;2806540;83;21028;-88
2022/05/28 09:49:50;;;;;;;2.65;0.78;;;;;;;16.08;62.61;99879.47;2802819;84;21006;-88
2022/05/28 09:54:16;;;;;;;0.60;0.30;;;;;;;16.20;61.78;99868.38;2810084;83;20978;-90
2022/05/28 09:58:22;;;;;;;4.85;1.35;;;;;;;15.93;60.58;99878.52;2813502;83;21017;-89
2022/05/28 10:02:31;;;;;;;7.47;1.40;;;;;;;15.44;61.52;99920.40;2782914;83;21082;-88
2022/05/28 10:06:34;;;;;;;3.33;0.70;;;;;;;14.50;70.08;99911.09;2824831;82;21053;-88
2022/05/28 10:10:37;;;;;;;2.67;1.12;;;;;;;13.82;71.97;99902.86;2807090;84;21050;-88
2022/05/28 10:14:38;;;;;;;1.42;0.53;;;;;;;13.71;77.33;99899.95;2821105;82;21620;-90
2022/05/28 10:18:47;;;;;;;2.87;0.78;;;;;;;13.55;77.02;99896.66;2845970;83;21025;-92
2022/05/28 10:22:51;;;;;;;1.20;0.50;;;;;;;13.48;74.24;99894.28;2814802;84;21066;-93
2022/05/28 10:26:57;;;;;;;5.83;1.35;;;;;;;13.60;73.80;99897.02;2816779;84;21027;-86
2022/05/28 10:30:59;;;;;;;1.45;0.90;;;;;;;13.77;75.39;99885.98;2811555;84;21034;-87
2022/05/28 10:35:17;;;;;;;5.40;1.12;;;;;;;14.17;70.33;99864.97;2814689;83;21034;-88
2022/05/28 10:39:19;;;;;;;4.45;1.35;;;;;;;14.90;71.68;99837.29;2814645;83;21042;-88
2022/05/28 10:43:32;;;;;;;2.25;0.85;;;;;;;15.22;67.70;99873.16;2845548;83;21057;-88
2022/05/28 10:47:54;;;;;;;2.60;1.17;;;;;;;15.32;69.45;99861.42;2813830;83;21038;-90
2022/05/28 10:52:44;;;;;;;3.12;0.80;;;;;;;15.69;67.30;99848.85;2794336;83;21669;-90
2022/05/28 10:56:56;;;;;;;2.92;0.70;;;;;;;15.91;64.76;99856.37;2815753;83;21046;-90
2022/05/28 11:01:09;;;;;;;3.58;0.93;;;;;;;15.96;65.15;99850.83;2814716;83;21121;-87
2022/05/28 11:05:55;;;;;;;3.00;1.55;;;;;;;15.85;61.46;99839.93;2769761;84;21630;-88
2022/05/28 11:10:29;;;;;;;3.00;0.90;;;;;;;16.00;62.32;99835.23;2793498;84;21740;-87
2022/05/28 11:15:09;;;;;;;5.62;1.30;;;;;;;16.46;63.80;99845.30;2843618;82;21025;-89
2022/05/28 11:19:30;;;;;;;3.77;1.00;;;;;;;16.65;60.11;99856.09;2791763;83;21046;-90
2022/05/28 11:23:55;;;;;;;0.70;0.70;;;;;;;16.72;59.18;99839.29;2849146;82;21061;-85
2022/05/28 11:28:40;;;;;;;2.35;0.82;;;;;;;16.75;62.75;99841.62;2816307;83;21010;-89
2022/05/28 11:33:17;;;;;;;1.75;0.70;;;;;;;16.53;62.50;99854.83;2804466;83;21053;-90
2022/05/28 11:37:40;;;;;;;2.85;0.98;;;;;;;16.15;62.58;99855.47;2818626;83;21569;-88
2022/05/28 11:42:24;;;;;;;2.85;2.05;;;;;;;16.46;63.13;99845.78;2820750;82;21088;-96
2022/05/28 11:46:33;;;;;;;2.90;0.75;;;;;;;16.88;59.80;99836.47;2842411;82;21053;-92
2022/05/28 11:55:22;;;;;;;3.37;0.90;;;;;;;17.29;60.37;99848.81;2815238;83;21063;-92
2022/05/28 11:59:27;;;;;;;8.15;1.82;;;;;;;17.25;58.95;99856.39;2817339;83;21101;-89
2022/05/28 12:03:30;;;;;;;4.28;0.68;;;;;;;17.23;57.38;99850.36;2817363;83;21085;-89
2022/05/28 12:07:36;;;;;;;4.53;0.82;;;;;;;16.89;60.35;99866.88;2795832;85;21006;-90
2022/05/28 12:11:44;;;;;;;;;;;;;;;16.32;60.95;99885.78;2844149;83;21295;-88
2022/05/28 12:15:45;;;;;;;1.85;0.42;;;;;;;15.69;61.98;99885.54;2725124;86;20113;-87
2022/05/28 12:20:04;;;;;;;1.10;0.42;;;;;;;14.56;65.80;99928.69;2780228;83;21093;-90
2022/05/28 12:24:09;;;;;;;1.85;0.95;;;;;;;13.73;70.23;99920.67;2834671;82;20978;-88
2022/05/28 12:28:15;;;;;;;1.75;0.47;;;;;;;13.85;75.06;99915.91;2795723;83;21033;-90
2022/05/28 12:32:23;;;;;;;1.95;1.05;;;;;;;14.39;74.31;99906.38;2832300;82;21152;-89
2022/05/28 12:36:41;;;;;;;6.95;1.07;;;;;;;14.93;69.72;99902.56;2815284;82;21002;-89
2022/05/28 12:40:59;;;;;;;4.12;1.10;;;;;;;15.53;69.18;99897.97;2830920;83;21010;-88
2022/05/28 12:45:37;;;;;;;3.50;1.20;;;;;;;16.00;64.30;99870.11;2797450;84;21055;-88
2022/05/28 12:49:59;;;;;;;4.30;0.60;;;;;;;16.30;64.52;99883.75;2833105;82;21002;-88
2022/05/28 12:54:04;;;;;;;6.75;1.02;;;;;;;16.55;64.48;99876.97;2819950;82;21053;-87
2022/05/28 12:58:22;;;;;;;1.85;0.80;;;;;;;16.62;60.70;99860.47;2824491;82;21041;-89
2022/05/28 13:02:29;;;;;;;1.55;0.90;;;;;;;16.62;60.60;99856.97;2822103;82;21566;-93
2022/05/28 13:06:48;;;;;;;1.75;0.53;;;;;;;16.69;61.42;99864.11;2805728;82;21072;-88
2022/05/28 13:11:08;;;;;;;2.55;0.70;;;;;;;16.88;59.80;99875.42;2843281;82;21692;-95
2022/05/28 13:15:55;;;;;;;1.87;1.02;;;;;;;17.08;59.45;99877.19;2815866;82;21058;-94
2022/05/28 13:20:05;;;;;;;2.05;1.45;;;;;;;17.47;59.68;99835.55;2787061;84;21041;-92
2022/05/28 13:24:33;;;;;;;3.45;0.85;;;;;;;17.46;57.17;99860.77;2810645;82;21050;-93
2022/05/28 13:29:09;;;;;;;1.85;0.57;;;;;;;17.31;57.18;99874.18;2816758;83;21047;-89
2022/05/28 13:33:13;;;;;;;1.32;1.05;;;;;;;17.62;58.89;99899.63;2792892;83;21046;-89
2022/05/28 13:37:20;;;;;;;1.42;0.95;;;;;;;17.64;60.05;99884.14;2792426;84;21104;-91
2022/05/28 13:41:29;;;;;;;3.83;1.22;;;;;;;17.85;59.53;99879.91;2743431;83;21494;-91
2022/05/28 13:45:35;;;;;;;14.40;3.15;;;;;;;17.83;59.16;99872.01;2807577;82;21090;-92
2022/05/28 13:49:37;;;;;;;2.70;1.02;;;;;;;17.81;60.79;99886.68;2809523;83;21624;-91
2022/05/28 13:53:43;;;;;;;3.08;0.90;;;;;;;17.82;59.35;99871.69;2771100;84;21066;-93
2022/05/28 13:57:46;;;;;;;3.50;1.52;;;;;;;17.76;58.56;99884.53;2793966;83;21526;-93
2022/05/28 14:01:49;;;;;;;1.45;0.90;;;;;;;17.37;59.23;99885.55;2797543;83;21129;-91
2022/05/28 14:05:51;;;;;;;3.50;1.30;;;;;;;17.10;61.33;99890.45;2809793;83;21077;-89
2022/05/28 14:09:53;;;;;;;3.52;1.57;;;;;;;16.89;61.84;99892.39;2802015;83;21077;-85
2022/05/28 14:13:58;;;;;;;3.37;1.57;;;;;;;16.82;63.27;99889.08;2796663;85;21051;-88
2022/05/28 14:18:00;;;;;;;2.52;0.60;;;;;;;16.83;59.89;99878.66;2793416;85;21058;-91
2022/05/28 14:22:05;;;;;;;3.62;0.82;;;;;;;16.73;59.29;99884.75;2779953;85;21062;-92
2022/05/28 14:26:07;;;;;;;4.70;1.52;;;;;;;16.85;60.16;99882.50;2792004;83;21062;-90
2022/05/28 14:30:10;;;;;;;1.98;1.10;;;;;;;17.12;60.85;99887.08;2778116;83;21051;-91
2022/05/28 14:34:17;;;;;;;6.55;1.40;;;;;;;17.48;60.71;99885.10;2800137;83;21007;-90
2022/05/28 14:38:28;;;;;;;2.47;0.95;;;;;;;17.91;57.25;99868.41;2777081;83;21074;-91
2022/05/28 14:42:40;;;;;;;2.58;1.40;;;;;;;17.88;54.32;99856.67;2797945;83;21098;-88
2022/05/28 14:46:43;;;;;;;3.70;1.55;;;;;;;18.07;55.60;99869.28;2791724;84;21378;-90
2022/05/28 14:50:48;;;;;;;3.40;1.25;;;;;;;18.02;55.25;99867.14;2778108;85;21054;-88
2022/05/28 14:55:06;;;;;;;2.65;1.52;;;;;;;17.99;54.13;99860.75;2798544;85;21080;-92
2022/05/28 14:59:07;;;;;;;3.15;0.88;;;;;;;18.21;54.79;99860.88;2800568;83;21078;-90
2022/05/28 15:03:13;;;;;;;2.87;1.02;;;;;;;18.15;56.39;99860.28;2800222;83;21083;-91
2022/05/28 15:07:27;;;;;;;5.95;2.05;;;;;;;18.38;54.84;99869.08;2801062;84;21043;-90
2022/05/28 15:11:35;;;;;;;2.37;1.35;;;;;;;18.00;53.48;99874.53;2798742;83;20999;-91
2022/05/28 15:15:36;;;;;;;6.53;1.85;;;;;;;17.50;55.37;99877.72;2754528;85;21037;-89
2022/05/28 15:19:38;;;;;;;1.60;1.02;;;;;;;16.70;57.60;99893.16;2798720;83;21102;-90
2022/05/28 15:23:40;;;;;;;4.37;1.30;;;;;;;16.33;59.25;99908.93;2807853;83;21007;-89
2022/05/28 15:27:41;;;;;;;3.60;1.25;;;;;;;16.05;62.87;99920.05;2795191;83;21034;-89
2022/05/28 15:31:42;;;;;;;12.07;1.12;;;;;;;15.35;69.26;99941.51;2797559;85;21046;-92
2022/05/28 15:40:05;;;;;;;2.52;0.85;;;;;;;14.88;77.37;99921.48;2799345;83;21094;-92
2022/05/28 15:44:11;;;;;;;1.02;0.68;;;;;;;15.17;74.63;99909.00;2781803;83;21066;-89
2022/05/28 15:48:14;;;;;;;0.78;0.60;;;;;;;15.46;73.20;99906.84;2797762;83;21359;-90
2022/05/28 15:52:15;;;;;;;4.45;0.93;;;;;;;15.88;71.06;99900.45;2801043;85;20995;-89
2022/05/28 15:56:17;;;;;;;3.37;0.85;;;;;;;16.28;68.22;99893.83;2797655;83;21079;-88
2022/05/28 16:00:18;;;;;;;3.08;0.72;;;;;;;16.45;65.94;99888.41;2800130;83;21031;-84
2022/05/28 16:04:21;;;;;;;4.33;1.30;;;;;;;16.59;65.11;99890.36;2801573;84;21035;-88
2022/05/28 16:08:39;;;;;;;1.50;0.88;;;;;;;16.71;64.29;99880.06;2798017;83;21035;-88
2022/05/28 16:12:26;;;;;;;3.55;1.00;;;;;;;16.88;64.82;99873.26;2777341;83;21050;-88
2022/05/28 16:16:27;;;;;;;1.70;1.37;;;;;;;17.02;66.04;99872.53;2799786;83;21026;-88
2022/05/28 16:20:29;;;;;;;3.77;1.42;;;;;;;17.12;65.59;99861.55;2794490;85;21022;-88
2022/05/28 16:24:30;;;;;;;1.15;0.85;;;;;;;17.19;64.98;99862.98;2800026;83;20987;-88
2022/05/28 16:28:32;;;;;;;7.58;1.22;;;;;;;17.28;65.50;99858.71;2771106;83;21067;-86
2022/05/28 16:32:33;;;;;;;4.28;1.17;;;;;;;17.37;62.02;99871.58;2780274;83;21657;-87
2022/05/28 16:36:34;;;;;;;1.92;1.30;;;;;;;17.28;60.12;99872.16;2788073;85;21610;-87
2022/05/28 16:40:35;;;;;;;2.15;1.00;;;;;;;17.30;61.06;99867.13;2776988;83;21031;-87
2022/05/28 16:44:36;;;;;;;1.92;0.95;;;;;;;17.25;59.66;99864.45;2795689;83;21041;-88
2022/05/28 16:48:37;;;;;;;8.43;1.17;;;;;;;17.07;58.67;99867.95;2799430;83;21023;-88
2022/05/28 16:52:38;;;;;;;1.77;1.20;;;;;;;17.01;59.16;99874.05;2799665;83;21089;-88
2022/05/28 16:56:43;;;;;;;5.53;1.35;;;;;;;16.81;58.23;99873.13;2793842;85;21035;-88
2022/05/28 17:00:45;;;;;;;2.47;1.10;;;;;;;16.49;58.81;99878.98;2803091;84;21038;-87
2022/05/28 17:04:47;;;;;;;5.12;0.85;;;;;;;16.32;58.77;99872.37;2799673;84;21681;-87
2022/05/28 17:08:48;;;;;;;5.53;1.77;;;;;;;16.25;59.06;99876.73;2792062;84;21062;-91
2022/05/28 17:12:49;;;;;;;2.30;0.95;;;;;;;16.15;59.35;99884.16;2711066;84;21047;-85
2022/05/28 17:16:50;;;;;;;2.83;1.12;;;;;;;15.90;59.04;99902.48;2799573;84;21027;-84
2022/05/28 17:20:51;;;;;;;3.92;1.15;;;;;;;15.78;59.68;99905.99;2791246;83;21066;-83
2022/05/28 17:24:56;;;;;;;2.60;0.90;;;;;;;15.62;59.35;99923.42;2769997;83;21111;-85
2022/05/28 17:28:57;;;;;;;2.50;1.00;;;;;;;15.54;62.30;99947.04;2753137;85;21051;-84
2022/05/28 17:32:59;;;;;;;2.95;1.70;;;;;;;15.30;63.90;99944.68;2775006;83;21058;-83
2022/05/28 17:37:01;;;;;;;1.98;0.90;;;;;;;15.04;64.72;99955.50;2800960;85;21029;-87
2022/05/28 17:41:02;;;;;;;2.92;0.93;;;;;;;14.80;65.84;99955.77;2800667;83;21054;-86
2022/05/28 17:45:06;;;;;;;1.47;1.07;;;;;;;14.78;66.26;99950.55;2794310;85;21066;-87
2022/05/28 17:49:09;;;;;;;7.47;1.25;;;;;;;14.63;66.67;99945.44;2801697;84;21086;-86
2022/05/28 17:53:10;;;;;;;13.15;1.92;;;;;;;14.52;66.88;99943.88;2797396;83;21614;-86
2022/05/28 17:57:11;;;;;;;2.12;1.07;;;;;;;14.39;67.37;99937.16;2801086;83;21023;-86
2022/05/28 18:01:15;;;;;;;4.28;1.15;;;;;;;14.36;67.29;99940.16;2792449;83;21034;-86
2022/05/28 18:05:20;;;;;;;4.33;1.98;;;;;;;14.39;67.88;99938.98;2778492;83;21685;-87
2022/05/28 18:09:22;;;;;;;3.27;1.17;;;;;;;14.37;67.46;99940.49;2797838;83;21082;-87
2022/05/28 18:13:23;;;;;;;2.95;1.52;;;;;;;14.42;67.01;99943.52;2798071;83;21066;-88
2022/05/28 18:17:41;;;;;;;3.12;1.80;;;;;;;14.46;65.94;99937.84;2793608;83;21129;-89
2022/05/28 18:21:45;;;;;;;7.08;0.95;;;;;;;14.45;63.84;99938.36;2786318;85;21034;-86
2022/05/28 18:25:50;;;;;;;1.32;0.90;;;;;;;14.41;64.28;99933.81;2797420;83;21074;-85
2022/05/28 18:29:51;;;;;;;4.00;1.35;;;;;;;14.43;63.69;99935.83;2773026;85;21079;-86
2022/05/28 18:33:53;;;;;;;4.25;1.17;;;;;;;14.43;63.77;99936.31;2767422;83;21047;-86
2022/05/28 18:37:57;;;;;;;2.70;1.22;;;;;;;14.35;63.56;99945.16;2783382;83;21094;-87
2022/05/28 18:41:58;;;;;;;2.40;1.12;;;;;;;14.29;64.04;99952.47;2735475;83;20992;-87
2022/05/28 18:45:59;;;;;;;3.15;1.12;;;;;;;14.23;64.87;99963.81;2789507;83;21038;-85
2022/05/28 18:50:00;;;;;;;2.60;1.12;;;;;;;14.09;65.25;99966.05;2793842;83;21023;-87
2022/05/28 18:54:04;;;;;;;4.55;1.40;;;;;;;13.99;65.96;99959.47;2805029;83;21070;-91
2022/05/28 18:58:06;;;;;;;3.77;2.12;;;;;;;13.84;66.24;99963.69;2794621;85;21153;-85
2022/05/28 19:02:12;;;;;;;6.20;2.25;;;;;;;13.73;66.94;99977.31;2786148;83;21038;-86
2022/05/28 19:06:14;;;;;;;4.80;2.65;;;;;;;13.59;67.16;99984.05;2790505;85;21019;-86
2022/05/28 19:10:17;;;;;;;4.40;1.70;;;;;;;13.45;67.81;99989.41;2803117;84;21035;-88
2022/05/28 19:14:19;;;;;;;3.40;1.98;;;;;;;13.29;68.34;99990.39;2803838;83;21047;-83
2022/05/28 19:18:20;;;;;;;4.67;2.90;;;;;;;13.13;68.48;100000.90;2803328;84;21033;-86
2022/05/28 19:22:24;;;;;;;3.58;2.30;;;;;;;12.96;68.92;100008.71;2807091;84;20978;-88
2022/05/28 19:30:35;;;;;;;4.37;2.95;;;;;;;12.70;69.70;100016.07;2767065;83;21019;-88
2022/05/28 19:34:38;;;;;;;4.47;1.20;;;;;;;12.57;69.97;100014.21;2807021;83;21381;-86
2022/05/28 19:38:39;;;;;;;4.37;1.82;;;;;;;12.48;70.70;100017.28;2789352;83;20999;-85